Terminal Aerodrome Forecast
Issued by NWS

Home | Current Version | Previous Version | Text Only | Print | Product List | Glossary On
Versions: 1 2 3 4 5 6 7 8 9 10 11 12 13 14
638
FTUS45 KVEF 052148 AAA
TAFEED
TAF AMD
KEED 052148Z 0522/0618 19018G30KT P6SM SCT250
     FM060300 22014G22KT P6SM VCSH SCT100 BKN250
     FM061000 23012KT P6SM SCT100 BKN200=

USA.gov is the U.S. government's official web portal to all federal, state and local government web resources and services.